Douglastown, Canada
Current Conditions -  °F | °C
As of 7:00 PM on Saturday 20 Dec 2014 (Local Time) from CYGP Reporting Station
Overcast Overcast  
Wind Chill: 21°   Ceiling: 1500
Heat Index: 21°   Visibility: 15mi
Dew Point: 16°   Wind: 3mph
Humidity: 80%   Direction: 310°NW
Pressure: 30.39"   Gusts: NA
Location:  48.76°N, 64.39°W
Report Text: CYGP 210000Z 31003KT 15SM OVC015 M06/M09 A3039 RMK SC8 SLP295
Loading
Personal Weather Stations






























Interactive Weather Map New forecast layout! Learn more

10-Day Weather Forecast

Advertisements
Track Severe Weather on mobile